Winnemucca, NV

9:37 AM PDT on October 23, 2014 (GMT -0700)
Rome State | Change Station
CLOSE
Current Station
Airport
Location: Rome,
Elevation: 4049 ft
Nearby Weather Stations

Elev 4049 ft 42.59 °N, 117.86 °W | Updated 45 minutes ago

Mostly Cloudy
Mostly Cloudy
54 °F
Feels Like 54 °F
N
9
Wind Variable Wind from SSE
Gusts 16 mph

Today
High -- | Low -- °F
--% Chance of Precip.
Yesterday
High -- | Low -- °F
Precip. -- in
7:11 AM 5:58 PM
Waning Crescent, 0% visible
Pressure 30.01 in
Visibility -9999.0 miles
Clouds
Dew Point 44 °F
Humidity 69%
Rainfall 0.02 in
Snow Depth Not available.
UV Not available.
Pollen 3.00 out of 12
Air Quality Not available.
Flu Activity No Activity
METAR KREO 231552Z AUTO 16008KT 12/07 A3006 RMK AO1 SLP163 T01220067

More Conditions Fewer Conditions

Pressure 30.01 in
Visibility -9999.0 miles
Clouds
Dew Point 44 °F
Humidity 69%
Rainfall 0.02 in
Snow Depth Not available.
UV Not available.
Pollen 3.00 out of 12
Air Quality Not available.
Flu Activity No Activity
METAR KREO 231552Z AUTO 16008KT 12/07 A3006 RMK AO1 SLP163 T01220067

More Conditions Fewer Conditions

10-Day Weather Forecast

Almanac

Astronomy

Oct. 23, 2014 Rise Set
Actual Time 7:11 AM PDT 5:58 PM PDT
Civil Twilight 6:43 AM PDT 6:26 PM PDT
Nautical Twilight 6:11 AM PDT 6:58 PM PDT
Astronomical Twilight 5:39 AM PDT 7:30 PM PDT
Moon 6:55 AM PDT 6:02 PM PDT
Length of Visible Light 11h 42m
Length of Day
10h 46m
Tomorrow will be 2m 32s shorter.
Waning Crescent, 0% of the Moon is Illuminated
Today
Waning Crescent
Oct 23
New
Oct 30
First Quarter
Nov 6
Full
Nov 14
Last Quarter

Today's Extremes

State Highs State Lows

Community

WunderPhotos

Upload Photos

1,764,306 photos uploaded!

WunderBlogs® & News

Nearby

Snow Depth

Station Depth Elevation
Lamance Creek 2 in 6000 ft
Granite Peak 1 in 7800 ft
Disaster Peak 0 in 6500 ft
Lewis Peak 0 in 7400 ft
Taylor Canyon 1 in 6200 ft

Earthquake Activity

City Distance Mag. Time & Date
Gerlach-Empire, Nevada 116 miles 2.5 7:16 AM PDT
2014-10-23
Minimum magnitude displayed is 2.5.

Coastal Water Temperatures

Place Temperature
No Stations Reporting

Nearby Weather Stations